KCLMCYAZ

Guest
Details From KCLM - WILLIAM R FAIRCHILD INTL
To CYAZ - Tofino
Flight Number -
Tags generated
Created
Modified
Stats Distance 107 nm / 198 km
Max Altitude 700 ft / 213 m
Waypoints 3
Social Downloads 1
Likes 0
Share VATSIM

Download

Looking for another format? Having issues loading an existing format? Contact us
Advertisement - Login to hide

Notes

Basic altitude profile: - Ascent Rate: 1200ft/min - Ascent Speed: 175kts - Cruise Altitude: 20000ft - Cruise Speed: 300kts - Descent Rate: 1200ft/min - Descent Speed: 125kts Options: - Use NATs: yes - Use PACOTS: yes - Use low airways: yes - Use high airways: yes

Route

KCLM YAZ CYAZ

ID Type Via Altitude Latitude Longitude Leg Dist Tot Dist Heading (true) Name
O KCLM APT - 0 ft / 0 m 48.12083˚ -123.50007˚ - 0 nm - WILLIAM R FAIRCHILD INTL
YAZ NDB - 700 ft / 213 m 49.04681˚ -125.70411˚ 103 nm 103 nm 303° / 302° TOFINO NDB
O CYAZ APT - 0 ft / 0 m 49.07919˚ -125.77564˚ 3 nm 107 nm 305° / 305° Tofino

Altitude Profile

Advertisement - Login to hide

KCLM

Details ICAO KCLM (CLM)
Name WILLIAM R FAIRCHILD INTL
Region United States
Timezone America/Los_Angeles (UTC-8.0)
Stats Elevation 291 ft / 89 m (AMSL)
Location 48.120829° -123.500070°
Runways 2
Magnetic Variation 16.053° E

METAR

KCLM 141914Z AUTO 08004KT 10SM SCT007 08/07 A3033 RMK AO2 T00780067 $

Decode

TAF

KCLM 141721Z 1418/1518 21003KT 6SM BR BKN250 FM142000 VRB03KT P6SM BKN200 FM150600 VRB03KT P6SM OVC100 FM151000 23004KT P6SM OVC040 FM151200 23004KT P6SM -RA OVC025

Decode

Departure Runways

ID Width Length Bearing (true) Bearing (mag) Surface Threshold Offset Overrun Length
08 151 ft / 46 m 6,353 ft / 1,936 m 104.61° 88.56° Asphalt 0 ft / 0 m 0 ft / 0 m
13 49 ft / 15 m 3,244 ft / 989 m 147.64° 131.59° Asphalt 0 ft / 0 m 0 ft / 0 m
26 151 ft / 46 m 6,353 ft / 1,936 m 284.63° 268.58° Asphalt 1,355 ft / 413 m 0 ft / 0 m
31 49 ft / 15 m 3,244 ft / 989 m 327.64° 311.59° Asphalt 0 ft / 0 m 0 ft / 0 m

CYAZ

Details ICAO CYAZ (YAZ)
Name Tofino
Region Canada
Timezone America/Vancouver (UTC-8.0)
Stats Elevation 80 ft / 24 m (AMSL)
Location 49.079190° -125.775638°
Runways 3
Magnetic Variation 16.606° E

METAR

CYAZ 141900Z 00000KT 15SM OVC220 07/06 A3031 RMK CI8 CONTRAILS SLP266

Decode

TAF

TAF CYAZ 141738Z 1418/1501 VRB03KT P6SM SCT200 BECMG 1418/1420 19006KT RMK NXT FCST WILL BE ISSUED AT 151645Z

Decode

Destination Runways

ID Width Length Bearing (true) Bearing (mag) Surface Threshold Offset Overrun Length
07 151 ft / 46 m 5,079 ft / 1,548 m 91.22° 74.61° Concrete 719 ft / 219 m 0 ft / 0 m
10 115 ft / 35 m 4,994 ft / 1,522 m 125.73° 109.12° Concrete 499 ft / 152 m 0 ft / 0 m
15 115 ft / 35 m 4,869 ft / 1,484 m 175.81° 159.20° Concrete 200 ft / 61 m 0 ft / 0 m
25 151 ft / 46 m 5,079 ft / 1,548 m 271.23° 254.62° Concrete 351 ft / 107 m 0 ft / 0 m
28 115 ft / 35 m 4,994 ft / 1,522 m 305.74° 289.13° Concrete 0 ft / 0 m 0 ft / 0 m
33 115 ft / 35 m 4,869 ft / 1,484 m 355.81° 339.20° Concrete 869 ft / 265 m 0 ft / 0 m